sensor_id;sensor_type;location;lat;lon;timestamp;P1;durP1;ratioP1;P2;durP2;ratioP2
73951;SDS011;62304;47.662;18.324;2022-08-19T00:00:22;13.40;;;10.63;;
73951;SDS011;62304;47.662;18.324;2022-08-19T00:03:28;13.98;;;10.23;;
73951;SDS011;62304;47.662;18.324;2022-08-19T00:06:31;15.40;;;10.27;;
73951;SDS011;62304;47.662;18.324;2022-08-19T00:09:34;14.53;;;8.70;;
73951;SDS011;62304;47.662;18.324;2022-08-19T00:12:37;12.80;;;9.70;;
73951;SDS011;62304;47.662;18.324;2022-08-19T00:15:48;14.18;;;9.95;;
73951;SDS011;62304;47.662;18.324;2022-08-19T00:18:51;12.57;;;9.68;;
73951;SDS011;62304;47.662;18.324;2022-08-19T00:21:54;12.00;;;8.98;;
73951;SDS011;62304;47.662;18.324;2022-08-19T00:24:59;14.23;;;9.97;;
73951;SDS011;62304;47.662;18.324;2022-08-19T00:28:03;14.00;;;9.73;;
73951;SDS011;62304;47.662;18.324;2022-08-19T00:31:07;12.73;;;9.60;;
73951;SDS011;62304;47.662;18.324;2022-08-19T00:34:12;10.45;;;8.40;;
73951;SDS011;62304;47.662;18.324;2022-08-19T00:37:16;12.85;;;9.20;;
73951;SDS011;62304;47.662;18.324;2022-08-19T00:40:19;13.23;;;9.40;;
73951;SDS011;62304;47.662;18.324;2022-08-19T00:43:23;12.23;;;9.50;;
73951;SDS011;62304;47.662;18.324;2022-08-19T00:46:28;11.00;;;8.32;;
73951;SDS011;62304;47.662;18.324;2022-08-19T00:52:36;13.20;;;9.00;;
73951;SDS011;62304;47.662;18.324;2022-08-19T00:55:45;15.03;;;8.87;;
73951;SDS011;62304;47.662;18.324;2022-08-19T00:58:54;11.40;;;8.37;;
73951;SDS011;62304;47.662;18.324;2022-08-19T01:01:58;8.60;;;6.65;;
73951;SDS011;62304;47.662;18.324;2022-08-19T01:05:03;13.02;;;8.85;;
73951;SDS011;62304;47.662;18.324;2022-08-19T01:08:08;9.45;;;7.30;;
73951;SDS011;62304;47.662;18.324;2022-08-19T01:11:12;12.10;;;8.17;;
73951;SDS011;62304;47.662;18.324;2022-08-19T01:14:15;15.37;;;8.60;;
73951;SDS011;62304;47.662;18.324;2022-08-19T01:17:19;16.65;;;8.25;;
73951;SDS011;62304;47.662;18.324;2022-08-19T01:20:23;13.00;;;8.05;;
73951;SDS011;62304;47.662;18.324;2022-08-19T01:23:27;10.95;;;8.02;;
73951;SDS011;62304;47.662;18.324;2022-08-19T01:26:44;13.37;;;7.83;;
73951;SDS011;62304;47.662;18.324;2022-08-19T01:29:50;10.63;;;8.03;;
73951;SDS011;62304;47.662;18.324;2022-08-19T01:32:53;12.80;;;8.00;;
73951;SDS011;62304;47.662;18.324;2022-08-19T01:36:14;14.55;;;8.35;;
73951;SDS011;62304;47.662;18.324;2022-08-19T01:39:28;10.98;;;6.90;;
73951;SDS011;62304;47.662;18.324;2022-08-19T01:42:32;12.43;;;8.07;;
73951;SDS011;62304;47.662;18.324;2022-08-19T01:45:34;13.77;;;8.60;;
73951;SDS011;62304;47.662;18.324;2022-08-19T01:48:40;13.23;;;8.55;;
73951;SDS011;62304;47.662;18.324;2022-08-19T01:51:44;12.45;;;9.27;;
73951;SDS011;62304;47.662;18.324;2022-08-19T01:54:48;15.93;;;8.77;;
73951;SDS011;62304;47.662;18.324;2022-08-19T01:57:52;13.13;;;8.83;;
73951;SDS011;62304;47.662;18.324;2022-08-19T02:01:01;12.80;;;8.90;;
73951;SDS011;62304;47.662;18.324;2022-08-19T02:04:05;13.48;;;8.98;;
73951;SDS011;62304;47.662;18.324;2022-08-19T02:07:08;12.73;;;8.40;;
73951;SDS011;62304;47.662;18.324;2022-08-19T02:10:13;11.73;;;8.52;;
73951;SDS011;62304;47.662;18.324;2022-08-19T02:13:21;11.63;;;9.03;;
73951;SDS011;62304;47.662;18.324;2022-08-19T02:16:28;14.27;;;9.67;;
73951;SDS011;62304;47.662;18.324;2022-08-19T02:19:31;13.90;;;9.32;;
73951;SDS011;62304;47.662;18.324;2022-08-19T02:22:41;14.45;;;8.50;;
73951;SDS011;62304;47.662;18.324;2022-08-19T02:25:45;14.85;;;8.23;;
73951;SDS011;62304;47.662;18.324;2022-08-19T02:28:50;13.30;;;8.73;;
73951;SDS011;62304;47.662;18.324;2022-08-19T02:31:53;11.80;;;9.73;;
73951;SDS011;62304;47.662;18.324;2022-08-19T02:34:56;13.80;;;8.98;;
73951;SDS011;62304;47.662;18.324;2022-08-19T02:37:58;12.50;;;8.75;;
73951;SDS011;62304;47.662;18.324;2022-08-19T02:41:22;13.55;;;8.73;;
73951;SDS011;62304;47.662;18.324;2022-08-19T02:44:28;13.97;;;9.63;;
73951;SDS011;62304;47.662;18.324;2022-08-19T02:47:33;13.70;;;8.63;;
73951;SDS011;62304;47.662;18.324;2022-08-19T02:50:40;14.15;;;9.13;;
73951;SDS011;62304;47.662;18.324;2022-08-19T02:53:54;11.38;;;8.80;;
73951;SDS011;62304;47.662;18.324;2022-08-19T02:56:58;13.50;;;8.85;;
73951;SDS011;62304;47.662;18.324;2022-08-19T03:00:04;9.57;;;8.07;;
73951;SDS011;62304;47.662;18.324;2022-08-19T03:03:11;14.77;;;8.67;;
73951;SDS011;62304;47.662;18.324;2022-08-19T03:06:15;12.48;;;8.50;;
73951;SDS011;62304;47.662;18.324;2022-08-19T03:09:18;12.77;;;9.35;;
73951;SDS011;62304;47.662;18.324;2022-08-19T03:12:22;13.88;;;9.38;;
73951;SDS011;62304;47.662;18.324;2022-08-19T03:15:25;17.47;;;9.43;;
73951;SDS011;62304;47.662;18.324;2022-08-19T03:18:28;12.53;;;9.20;;
73951;SDS011;62304;47.662;18.324;2022-08-19T03:21:32;12.68;;;8.88;;
73951;SDS011;62304;47.662;18.324;2022-08-19T03:24:36;14.52;;;9.05;;
73951;SDS011;62304;47.662;18.324;2022-08-19T03:27:40;12.93;;;9.05;;
73951;SDS011;62304;47.662;18.324;2022-08-19T03:30:53;13.93;;;9.80;;
73951;SDS011;62304;47.662;18.324;2022-08-19T03:34:02;13.40;;;9.40;;
73951;SDS011;62304;47.662;18.324;2022-08-19T03:37:10;11.80;;;8.82;;
73951;SDS011;62304;47.662;18.324;2022-08-19T03:40:16;11.88;;;7.97;;
73951;SDS011;62304;47.662;18.324;2022-08-19T03:43:21;12.82;;;9.25;;
73951;SDS011;62304;47.662;18.324;2022-08-19T03:46:27;18.73;;;9.60;;
73951;SDS011;62304;47.662;18.324;2022-08-19T03:49:32;11.70;;;9.10;;
73951;SDS011;62304;47.662;18.324;2022-08-19T03:52:37;14.25;;;9.07;;
73951;SDS011;62304;47.662;18.324;2022-08-19T03:55:46;13.35;;;8.88;;
73951;SDS011;62304;47.662;18.324;2022-08-19T03:58:49;10.23;;;7.15;;
73951;SDS011;62304;47.662;18.324;2022-08-19T04:01:53;12.87;;;9.03;;
73951;SDS011;62304;47.662;18.324;2022-08-19T04:04:58;12.93;;;8.70;;
73951;SDS011;62304;47.662;18.324;2022-08-19T04:08:01;11.80;;;8.27;;
73951;SDS011;62304;47.662;18.324;2022-08-19T04:11:23;15.30;;;9.00;;
73951;SDS011;62304;47.662;18.324;2022-08-19T04:14:45;12.18;;;8.10;;
73951;SDS011;62304;47.662;18.324;2022-08-19T04:17:49;11.90;;;7.50;;
73951;SDS011;62304;47.662;18.324;2022-08-19T04:20:52;10.80;;;7.70;;
73951;SDS011;62304;47.662;18.324;2022-08-19T04:23:57;12.18;;;8.07;;
73951;SDS011;62304;47.662;18.324;2022-08-19T04:27:00;13.82;;;8.20;;
73951;SDS011;62304;47.662;18.324;2022-08-19T04:30:05;11.90;;;8.07;;
73951;SDS011;62304;47.662;18.324;2022-08-19T04:33:09;12.33;;;7.90;;
73951;SDS011;62304;47.662;18.324;2022-08-19T04:36:17;12.37;;;7.23;;
73951;SDS011;62304;47.662;18.324;2022-08-19T04:39:29;11.52;;;7.80;;
73951;SDS011;62304;47.662;18.324;2022-08-19T04:42:51;9.43;;;6.45;;
73951;SDS011;62304;47.662;18.324;2022-08-19T04:45:56;10.18;;;7.25;;
73951;SDS011;62304;47.662;18.324;2022-08-19T04:49:03;11.17;;;6.37;;
73951;SDS011;62304;47.662;18.324;2022-08-19T04:52:14;13.83;;;7.83;;
73951;SDS011;62304;47.662;18.324;2022-08-19T04:55:17;10.75;;;6.87;;
73951;SDS011;62304;47.662;18.324;2022-08-19T04:58:20;11.35;;;7.03;;
73951;SDS011;62304;47.662;18.324;2022-08-19T05:01:27;9.70;;;7.03;;
73951;SDS011;62304;47.662;18.324;2022-08-19T05:04:31;10.97;;;7.07;;
73951;SDS011;62304;47.662;18.324;2022-08-19T05:07:35;9.33;;;6.90;;
73951;SDS011;62304;47.662;18.324;2022-08-19T05:10:38;12.80;;;7.90;;
73951;SDS011;62304;47.662;18.324;2022-08-19T05:13:43;9.43;;;6.50;;
73951;SDS011;62304;47.662;18.324;2022-08-19T05:16:47;11.38;;;7.57;;
73951;SDS011;62304;47.662;18.324;2022-08-19T05:19:50;12.53;;;7.17;;
73951;SDS011;62304;47.662;18.324;2022-08-19T05:23:12;12.20;;;8.83;;
73951;SDS011;62304;47.662;18.324;2022-08-19T05:26:24;8.73;;;6.97;;
73951;SDS011;62304;47.662;18.324;2022-08-19T05:29:28;9.77;;;7.32;;
73951;SDS011;62304;47.662;18.324;2022-08-19T05:32:38;10.75;;;7.15;;
73951;SDS011;62304;47.662;18.324;2022-08-19T05:35:41;13.37;;;7.37;;
73951;SDS011;62304;47.662;18.324;2022-08-19T05:38:45;8.80;;;6.53;;
73951;SDS011;62304;47.662;18.324;2022-08-19T05:41:50;12.57;;;6.85;;
73951;SDS011;62304;47.662;18.324;2022-08-19T05:44:57;12.25;;;7.65;;
73951;SDS011;62304;47.662;18.324;2022-08-19T05:48:00;12.70;;;7.32;;
73951;SDS011;62304;47.662;18.324;2022-08-19T05:51:06;10.03;;;6.43;;
73951;SDS011;62304;47.662;18.324;2022-08-19T05:54:22;8.48;;;6.05;;
73951;SDS011;62304;47.662;18.324;2022-08-19T05:57:26;13.98;;;7.12;;
73951;SDS011;62304;47.662;18.324;2022-08-19T06:00:31;9.52;;;7.07;;
73951;SDS011;62304;47.662;18.324;2022-08-19T06:03:34;10.20;;;6.57;;
73951;SDS011;62304;47.662;18.324;2022-08-19T06:06:41;11.75;;;6.65;;
73951;SDS011;62304;47.662;18.324;2022-08-19T06:09:44;10.07;;;7.43;;
73951;SDS011;62304;47.662;18.324;2022-08-19T06:13:01;10.68;;;6.65;;
73951;SDS011;62304;47.662;18.324;2022-08-19T06:16:05;11.93;;;6.70;;
73951;SDS011;62304;47.662;18.324;2022-08-19T06:19:11;11.13;;;6.50;;
73951;SDS011;62304;47.662;18.324;2022-08-19T06:22:15;10.50;;;6.87;;
73951;SDS011;62304;47.662;18.324;2022-08-19T06:25:19;7.68;;;5.80;;
73951;SDS011;62304;47.662;18.324;2022-08-19T06:28:22;10.57;;;6.20;;
73951;SDS011;62304;47.662;18.324;2022-08-19T06:31:27;9.43;;;6.70;;
73951;SDS011;62304;47.662;18.324;2022-08-19T06:34:32;13.50;;;6.50;;
73951;SDS011;62304;47.662;18.324;2022-08-19T06:37:35;9.85;;;5.85;;
73951;SDS011;62304;47.662;18.324;2022-08-19T06:40:45;11.50;;;6.53;;
73951;SDS011;62304;47.662;18.324;2022-08-19T06:43:47;11.98;;;7.22;;
73951;SDS011;62304;47.662;18.324;2022-08-19T06:46:55;14.05;;;7.43;;
73951;SDS011;62304;47.662;18.324;2022-08-19T06:49:58;11.87;;;7.03;;
73951;SDS011;62304;47.662;18.324;2022-08-19T06:53:07;13.07;;;6.60;;
73951;SDS011;62304;47.662;18.324;2022-08-19T06:56:09;9.48;;;7.32;;
73951;SDS011;62304;47.662;18.324;2022-08-19T06:59:13;11.43;;;8.10;;
73951;SDS011;62304;47.662;18.324;2022-08-19T07:02:20;11.20;;;7.25;;
73951;SDS011;62304;47.662;18.324;2022-08-19T07:05:24;15.03;;;7.27;;
73951;SDS011;62304;47.662;18.324;2022-08-19T07:08:27;14.15;;;7.05;;
73951;SDS011;62304;47.662;18.324;2022-08-19T07:11:31;9.20;;;7.15;;
73951;SDS011;62304;47.662;18.324;2022-08-19T07:14:35;11.35;;;6.57;;
73951;SDS011;62304;47.662;18.324;2022-08-19T07:17:42;11.12;;;6.80;;
73951;SDS011;62304;47.662;18.324;2022-08-19T07:20:47;9.73;;;6.57;;
73951;SDS011;62304;47.662;18.324;2022-08-19T07:23:50;11.07;;;7.55;;
73951;SDS011;62304;47.662;18.324;2022-08-19T07:26:55;9.95;;;7.22;;
73951;SDS011;62304;47.662;18.324;2022-08-19T07:30:04;11.95;;;7.25;;
73951;SDS011;62304;47.662;18.324;2022-08-19T07:33:12;9.90;;;7.40;;
73951;SDS011;62304;47.662;18.324;2022-08-19T07:36:17;11.03;;;6.40;;
73951;SDS011;62304;47.662;18.324;2022-08-19T07:39:29;11.10;;;6.53;;
73951;SDS011;62304;47.662;18.324;2022-08-19T07:42:37;11.12;;;7.53;;
73951;SDS011;62304;47.662;18.324;2022-08-19T07:45:40;10.13;;;6.87;;
73951;SDS011;62304;47.662;18.324;2022-08-19T07:48:44;10.38;;;7.25;;
73951;SDS011;62304;47.662;18.324;2022-08-19T07:51:53;9.90;;;6.17;;
73951;SDS011;62304;47.662;18.324;2022-08-19T07:55:00;9.82;;;6.50;;
73951;SDS011;62304;47.662;18.324;2022-08-19T07:58:05;9.10;;;6.95;;
73951;SDS011;62304;47.662;18.324;2022-08-19T08:01:10;10.60;;;6.93;;
73951;SDS011;62304;47.662;18.324;2022-08-19T08:04:15;10.93;;;6.93;;
73951;SDS011;62304;47.662;18.324;2022-08-19T08:07:37;10.47;;;7.00;;
73951;SDS011;62304;47.662;18.324;2022-08-19T08:10:59;10.73;;;7.20;;
73951;SDS011;62304;47.662;18.324;2022-08-19T08:14:02;10.60;;;6.90;;
73951;SDS011;62304;47.662;18.324;2022-08-19T08:17:07;10.60;;;6.77;;
73951;SDS011;62304;47.662;18.324;2022-08-19T08:20:13;12.40;;;7.37;;
73951;SDS011;62304;47.662;18.324;2022-08-19T08:23:17;11.45;;;6.90;;
73951;SDS011;62304;47.662;18.324;2022-08-19T08:26:27;11.20;;;6.35;;
73951;SDS011;62304;47.662;18.324;2022-08-19T08:29:34;9.90;;;6.90;;
73951;SDS011;62304;47.662;18.324;2022-08-19T08:32:37;11.87;;;7.03;;
73951;SDS011;62304;47.662;18.324;2022-08-19T08:35:42;10.53;;;6.57;;
73951;SDS011;62304;47.662;18.324;2022-08-19T08:38:45;13.93;;;10.57;;
73951;SDS011;62304;47.662;18.324;2022-08-19T08:42:01;10.40;;;6.10;;
73951;SDS011;62304;47.662;18.324;2022-08-19T08:45:18;10.23;;;6.95;;
73951;SDS011;62304;47.662;18.324;2022-08-19T08:51:58;10.07;;;7.00;;
73951;SDS011;62304;47.662;18.324;2022-08-19T08:55:07;9.68;;;6.55;;
73951;SDS011;62304;47.662;18.324;2022-08-19T08:58:16;9.93;;;6.53;;
73951;SDS011;62304;47.662;18.324;2022-08-19T09:01:27;11.00;;;7.00;;
73951;SDS011;62304;47.662;18.324;2022-08-19T09:04:33;9.57;;;6.37;;
73951;SDS011;62304;47.662;18.324;2022-08-19T09:11:32;8.25;;;6.43;;
73951;SDS011;62304;47.662;18.324;2022-08-19T09:17:53;10.10;;;6.45;;
73951;SDS011;62304;47.662;18.324;2022-08-19T09:20:56;8.67;;;6.63;;
73951;SDS011;62304;47.662;18.324;2022-08-19T09:24:01;13.07;;;6.43;;
73951;SDS011;62304;47.662;18.324;2022-08-19T09:27:05;9.48;;;6.28;;
73951;SDS011;62304;47.662;18.324;2022-08-19T09:30:20;8.05;;;5.70;;
73951;SDS011;62304;47.662;18.324;2022-08-19T09:33:28;8.98;;;6.53;;
73951;SDS011;62304;47.662;18.324;2022-08-19T09:36:31;11.80;;;6.60;;
73951;SDS011;62304;47.662;18.324;2022-08-19T09:39:38;11.87;;;6.70;;
73951;SDS011;62304;47.662;18.324;2022-08-19T09:42:43;10.40;;;6.97;;
73951;SDS011;62304;47.662;18.324;2022-08-19T09:45:53;9.70;;;5.82;;
73951;SDS011;62304;47.662;18.324;2022-08-19T09:48:57;8.10;;;5.85;;
73951;SDS011;62304;47.662;18.324;2022-08-19T09:52:08;11.27;;;6.20;;
73951;SDS011;62304;47.662;18.324;2022-08-19T09:55:14;11.03;;;5.10;;
73951;SDS011;62304;47.662;18.324;2022-08-19T09:58:19;9.82;;;5.65;;
73951;SDS011;62304;47.662;18.324;2022-08-19T10:01:28;8.68;;;5.57;;
73951;SDS011;62304;47.662;18.324;2022-08-19T10:04:33;10.60;;;4.87;;
73951;SDS011;62304;47.662;18.324;2022-08-19T10:07:55;10.03;;;5.40;;
73951;SDS011;62304;47.662;18.324;2022-08-19T10:11:07;12.00;;;5.83;;
73951;SDS011;62304;47.662;18.324;2022-08-19T10:14:31;10.20;;;5.43;;
73951;SDS011;62304;47.662;18.324;2022-08-19T10:17:35;8.98;;;5.12;;
73951;SDS011;62304;47.662;18.324;2022-08-19T10:20:38;10.77;;;5.68;;
73951;SDS011;62304;47.662;18.324;2022-08-19T10:23:43;9.13;;;5.20;;
73951;SDS011;62304;47.662;18.324;2022-08-19T10:26:53;11.47;;;5.67;;
73951;SDS011;62304;47.662;18.324;2022-08-19T10:30:01;10.88;;;5.87;;
73951;SDS011;62304;47.662;18.324;2022-08-19T10:33:04;14.00;;;6.30;;
73951;SDS011;62304;47.662;18.324;2022-08-19T10:36:18;12.70;;;6.20;;
73951;SDS011;62304;47.662;18.324;2022-08-19T10:39:24;10.27;;;5.67;;
73951;SDS011;62304;47.662;18.324;2022-08-19T10:42:32;11.47;;;5.47;;
73951;SDS011;62304;47.662;18.324;2022-08-19T10:45:35;8.93;;;5.47;;
73951;SDS011;62304;47.662;18.324;2022-08-19T10:48:54;10.77;;;5.15;;
73951;SDS011;62304;47.662;18.324;2022-08-19T10:51:57;9.40;;;4.87;;
73951;SDS011;62304;47.662;18.324;2022-08-19T10:55:23;10.90;;;5.63;;
73951;SDS011;62304;47.662;18.324;2022-08-19T10:58:45;8.23;;;5.50;;
73951;SDS011;62304;47.662;18.324;2022-08-19T11:01:48;13.02;;;6.75;;
73951;SDS011;62304;47.662;18.324;2022-08-19T11:04:56;10.13;;;5.65;;
73951;SDS011;62304;47.662;18.324;2022-08-19T11:08:13;11.73;;;6.00;;
73951;SDS011;62304;47.662;18.324;2022-08-19T11:11:24;12.00;;;6.03;;
73951;SDS011;62304;47.662;18.324;2022-08-19T11:14:28;9.00;;;6.23;;
73951;SDS011;62304;47.662;18.324;2022-08-19T11:17:35;10.35;;;6.25;;
73951;SDS011;62304;47.662;18.324;2022-08-19T11:20:39;10.55;;;5.62;;
73951;SDS011;62304;47.662;18.324;2022-08-19T11:23:42;12.00;;;6.03;;
73951;SDS011;62304;47.662;18.324;2022-08-19T11:26:46;15.07;;;6.27;;
73951;SDS011;62304;47.662;18.324;2022-08-19T11:29:51;8.97;;;6.03;;
73951;SDS011;62304;47.662;18.324;2022-08-19T11:32:55;9.98;;;5.75;;
73951;SDS011;62304;47.662;18.324;2022-08-19T11:35:58;8.15;;;4.50;;
73951;SDS011;62304;47.662;18.324;2022-08-19T11:39:04;9.85;;;5.07;;
73951;SDS011;62304;47.662;18.324;2022-08-19T11:42:09;11.55;;;6.20;;
73951;SDS011;62304;47.662;18.324;2022-08-19T11:45:30;9.43;;;4.70;;
73951;SDS011;62304;47.662;18.324;2022-08-19T11:48:34;11.68;;;5.95;;
73951;SDS011;62304;47.662;18.324;2022-08-19T11:51:39;13.40;;;6.55;;
73951;SDS011;62304;47.662;18.324;2022-08-19T11:54:44;9.30;;;5.70;;
73951;SDS011;62304;47.662;18.324;2022-08-19T11:57:47;9.13;;;6.53;;
73951;SDS011;62304;47.662;18.324;2022-08-19T12:00:50;12.43;;;6.80;;
73951;SDS011;62304;47.662;18.324;2022-08-19T12:03:55;12.25;;;6.85;;
73951;SDS011;62304;47.662;18.324;2022-08-19T12:06:58;11.00;;;6.87;;
73951;SDS011;62304;47.662;18.324;2022-08-19T12:10:02;11.90;;;6.40;;
73951;SDS011;62304;47.662;18.324;2022-08-19T12:13:05;11.07;;;6.67;;
73951;SDS011;62304;47.662;18.324;2022-08-19T12:16:13;15.87;;;6.73;;
73951;SDS011;62304;47.662;18.324;2022-08-19T12:19:17;10.10;;;6.65;;
73951;SDS011;62304;47.662;18.324;2022-08-19T12:22:24;10.63;;;6.35;;
73951;SDS011;62304;47.662;18.324;2022-08-19T12:25:26;12.45;;;5.75;;
73951;SDS011;62304;47.662;18.324;2022-08-19T12:28:30;15.20;;;5.93;;
73951;SDS011;62304;47.662;18.324;2022-08-19T12:31:32;15.57;;;4.77;;
73951;SDS011;62304;47.662;18.324;2022-08-19T12:34:37;13.50;;;5.82;;
73951;SDS011;62304;47.662;18.324;2022-08-19T12:37:40;11.02;;;5.05;;
73951;SDS011;62304;47.662;18.324;2022-08-19T12:40:45;16.35;;;5.75;;
73951;SDS011;62304;47.662;18.324;2022-08-19T12:43:49;12.23;;;5.40;;
73951;SDS011;62304;47.662;18.324;2022-08-19T12:46:54;14.57;;;4.80;;
73951;SDS011;62304;47.662;18.324;2022-08-19T12:49:58;16.15;;;4.82;;
73951;SDS011;62304;47.662;18.324;2022-08-19T12:53:03;16.40;;;4.90;;
73951;SDS011;62304;47.662;18.324;2022-08-19T12:56:07;13.93;;;5.18;;
73951;SDS011;62304;47.662;18.324;2022-08-19T12:59:14;14.70;;;5.27;;
73951;SDS011;62304;47.662;18.324;2022-08-19T13:02:19;10.57;;;4.70;;
73951;SDS011;62304;47.662;18.324;2022-08-19T13:05:23;17.90;;;5.07;;
73951;SDS011;62304;47.662;18.324;2022-08-19T13:08:28;12.48;;;4.32;;
73951;SDS011;62304;47.662;18.324;2022-08-19T13:11:36;11.93;;;4.90;;
73951;SDS011;62304;47.662;18.324;2022-08-19T13:14:39;13.40;;;4.33;;
73951;SDS011;62304;47.662;18.324;2022-08-19T13:17:43;13.60;;;4.57;;
73951;SDS011;62304;47.662;18.324;2022-08-19T13:20:45;10.30;;;4.57;;
73951;SDS011;62304;47.662;18.324;2022-08-19T13:23:54;12.43;;;4.50;;
73951;SDS011;62304;47.662;18.324;2022-08-19T13:26:57;13.05;;;4.57;;
73951;SDS011;62304;47.662;18.324;2022-08-19T13:30:02;10.40;;;4.37;;
73951;SDS011;62304;47.662;18.324;2022-08-19T13:33:24;14.93;;;4.90;;
73951;SDS011;62304;47.662;18.324;2022-08-19T13:36:29;10.88;;;4.15;;
73951;SDS011;62304;47.662;18.324;2022-08-19T13:39:32;15.10;;;4.50;;
73951;SDS011;62304;47.662;18.324;2022-08-19T13:42:36;11.93;;;3.40;;
73951;SDS011;62304;47.662;18.324;2022-08-19T13:45:39;10.30;;;3.07;;
73951;SDS011;62304;47.662;18.324;2022-08-19T13:48:42;9.23;;;2.80;;
73951;SDS011;62304;47.662;18.324;2022-08-19T13:51:45;11.27;;;2.90;;
73951;SDS011;62304;47.662;18.324;2022-08-19T13:54:48;10.32;;;2.92;;
73951;SDS011;62304;47.662;18.324;2022-08-19T13:57:53;12.37;;;2.67;;
73951;SDS011;62304;47.662;18.324;2022-08-19T14:00:58;10.80;;;2.67;;
73951;SDS011;62304;47.662;18.324;2022-08-19T14:04:02;10.03;;;2.50;;
73951;SDS011;62304;47.662;18.324;2022-08-19T14:07:06;13.15;;;2.70;;
73951;SDS011;62304;47.662;18.324;2022-08-19T14:10:10;9.55;;;2.58;;
73951;SDS011;62304;47.662;18.324;2022-08-19T14:13:15;9.68;;;2.62;;
73951;SDS011;62304;47.662;18.324;2022-08-19T14:16:20;7.90;;;3.13;;
73951;SDS011;62304;47.662;18.324;2022-08-19T14:19:25;10.50;;;2.73;;
73951;SDS011;62304;47.662;18.324;2022-08-19T14:22:31;17.12;;;2.83;;
73951;SDS011;62304;47.662;18.324;2022-08-19T14:25:34;13.10;;;2.67;;
73951;SDS011;62304;47.662;18.324;2022-08-19T14:28:38;10.80;;;2.75;;
73951;SDS011;62304;47.662;18.324;2022-08-19T14:31:43;12.40;;;2.83;;
73951;SDS011;62304;47.662;18.324;2022-08-19T14:34:46;8.73;;;2.57;;
73951;SDS011;62304;47.662;18.324;2022-08-19T14:37:50;12.95;;;3.10;;
73951;SDS011;62304;47.662;18.324;2022-08-19T14:41:15;10.48;;;2.60;;
73951;SDS011;62304;47.662;18.324;2022-08-19T14:44:21;14.30;;;3.00;;
73951;SDS011;62304;47.662;18.324;2022-08-19T14:47:25;9.70;;;2.67;;
73951;SDS011;62304;47.662;18.324;2022-08-19T14:50:29;12.63;;;3.03;;
73951;SDS011;62304;47.662;18.324;2022-08-19T14:53:33;10.90;;;3.20;;
73951;SDS011;62304;47.662;18.324;2022-08-19T14:56:37;13.57;;;2.97;;
73951;SDS011;62304;47.662;18.324;2022-08-19T14:59:43;11.02;;;2.95;;
73951;SDS011;62304;47.662;18.324;2022-08-19T15:02:46;9.83;;;2.90;;
73951;SDS011;62304;47.662;18.324;2022-08-19T15:05:49;11.27;;;2.63;;
73951;SDS011;62304;47.662;18.324;2022-08-19T15:08:53;12.73;;;3.10;;
73951;SDS011;62304;47.662;18.324;2022-08-19T15:11:56;12.37;;;2.78;;
73951;SDS011;62304;47.662;18.324;2022-08-19T15:15:01;12.37;;;2.90;;
73951;SDS011;62304;47.662;18.324;2022-08-19T15:18:04;11.43;;;3.73;;
73951;SDS011;62304;47.662;18.324;2022-08-19T15:21:07;12.57;;;3.63;;
73951;SDS011;62304;47.662;18.324;2022-08-19T15:24:11;10.70;;;2.72;;
73951;SDS011;62304;47.662;18.324;2022-08-19T15:27:15;13.27;;;2.80;;
73951;SDS011;62304;47.662;18.324;2022-08-19T15:30:21;13.98;;;2.90;;
73951;SDS011;62304;47.662;18.324;2022-08-19T15:33:25;13.70;;;2.90;;
73951;SDS011;62304;47.662;18.324;2022-08-19T15:36:29;11.83;;;3.57;;
73951;SDS011;62304;47.662;18.324;2022-08-19T15:39:31;17.20;;;4.68;;
73951;SDS011;62304;47.662;18.324;2022-08-19T15:42:35;13.90;;;3.97;;
73951;SDS011;62304;47.662;18.324;2022-08-19T15:45:39;13.73;;;3.53;;
73951;SDS011;62304;47.662;18.324;2022-08-19T15:48:49;17.77;;;4.37;;
73951;SDS011;62304;47.662;18.324;2022-08-19T15:52:00;13.40;;;4.30;;
73951;SDS011;62304;47.662;18.324;2022-08-19T15:55:04;18.05;;;4.80;;
73951;SDS011;62304;47.662;18.324;2022-08-19T15:58:10;17.00;;;5.03;;
73951;SDS011;62304;47.662;18.324;2022-08-19T16:01:38;15.68;;;4.20;;
73951;SDS011;62304;47.662;18.324;2022-08-19T16:05:00;16.07;;;4.50;;
73951;SDS011;62304;47.662;18.324;2022-08-19T16:08:24;12.80;;;4.47;;
73951;SDS011;62304;47.662;18.324;2022-08-19T16:11:28;16.50;;;4.45;;
73951;SDS011;62304;47.662;18.324;2022-08-19T16:14:40;19.80;;;4.50;;
73951;SDS011;62304;47.662;18.324;2022-08-19T16:17:44;15.55;;;4.53;;
73951;SDS011;62304;47.662;18.324;2022-08-19T16:20:57;18.33;;;4.63;;
73951;SDS011;62304;47.662;18.324;2022-08-19T16:24:02;15.13;;;4.70;;
73951;SDS011;62304;47.662;18.324;2022-08-19T16:27:07;16.67;;;5.25;;
73951;SDS011;62304;47.662;18.324;2022-08-19T16:30:10;13.30;;;4.45;;
73951;SDS011;62304;47.662;18.324;2022-08-19T16:33:12;19.02;;;5.85;;
73951;SDS011;62304;47.662;18.324;2022-08-19T16:36:25;13.73;;;4.90;;
73951;SDS011;62304;47.662;18.324;2022-08-19T16:39:29;17.97;;;5.77;;
73951;SDS011;62304;47.662;18.324;2022-08-19T16:42:32;14.40;;;5.00;;
73951;SDS011;62304;47.662;18.324;2022-08-19T16:45:35;18.98;;;5.97;;
73951;SDS011;62304;47.662;18.324;2022-08-19T16:48:38;13.07;;;4.70;;
73951;SDS011;62304;47.662;18.324;2022-08-19T16:51:44;17.17;;;6.23;;
73951;SDS011;62304;47.662;18.324;2022-08-19T16:54:50;12.83;;;5.77;;
73951;SDS011;62304;47.662;18.324;2022-08-19T16:57:55;19.17;;;5.60;;
73951;SDS011;62304;47.662;18.324;2022-08-19T17:01:00;18.52;;;5.55;;
73951;SDS011;62304;47.662;18.324;2022-08-19T17:04:05;15.27;;;5.47;;
73951;SDS011;62304;47.662;18.324;2022-08-19T17:07:09;15.90;;;5.73;;
73951;SDS011;62304;47.662;18.324;2022-08-19T17:10:12;15.27;;;6.07;;
73951;SDS011;62304;47.662;18.324;2022-08-19T17:13:15;11.93;;;6.18;;
73951;SDS011;62304;47.662;18.324;2022-08-19T17:16:18;13.68;;;6.95;;
73951;SDS011;62304;47.662;18.324;2022-08-19T17:19:23;13.68;;;6.70;;
73951;SDS011;62304;47.662;18.324;2022-08-19T17:22:29;12.20;;;6.50;;
73951;SDS011;62304;47.662;18.324;2022-08-19T17:25:33;15.40;;;7.40;;
73951;SDS011;62304;47.662;18.324;2022-08-19T17:28:36;12.25;;;5.65;;
73951;SDS011;62304;47.662;18.324;2022-08-19T17:31:39;12.82;;;5.53;;
73951;SDS011;62304;47.662;18.324;2022-08-19T17:34:42;14.65;;;5.47;;
73951;SDS011;62304;47.662;18.324;2022-08-19T17:37:46;15.17;;;5.50;;
73951;SDS011;62304;47.662;18.324;2022-08-19T17:40:49;14.63;;;5.97;;
73951;SDS011;62304;47.662;18.324;2022-08-19T17:43:54;14.57;;;6.65;;
73951;SDS011;62304;47.662;18.324;2022-08-19T17:46:56;13.25;;;5.60;;
73951;SDS011;62304;47.662;18.324;2022-08-19T17:49:59;14.40;;;5.78;;
73951;SDS011;62304;47.662;18.324;2022-08-19T17:53:03;14.70;;;5.73;;
73951;SDS011;62304;47.662;18.324;2022-08-19T17:56:07;14.33;;;6.73;;
73951;SDS011;62304;47.662;18.324;2022-08-19T17:59:10;14.15;;;6.03;;
73951;SDS011;62304;47.662;18.324;2022-08-19T18:02:15;15.10;;;5.95;;
73951;SDS011;62304;47.662;18.324;2022-08-19T18:05:24;15.90;;;6.82;;
73951;SDS011;62304;47.662;18.324;2022-08-19T18:08:31;16.43;;;7.00;;
73951;SDS011;62304;47.662;18.324;2022-08-19T18:11:34;18.43;;;7.00;;
73951;SDS011;62304;47.662;18.324;2022-08-19T18:14:37;16.95;;;7.15;;
73951;SDS011;62304;47.662;18.324;2022-08-19T18:17:41;16.55;;;7.85;;
73951;SDS011;62304;47.662;18.324;2022-08-19T18:20:44;14.40;;;6.55;;
73951;SDS011;62304;47.662;18.324;2022-08-19T18:23:47;12.13;;;7.60;;